sensor_id;sensor_type;location;lat;lon;timestamp;pressure;altitude;pressure_sealevel;temperature;humidity
61478;BME280;47345;52.334;10.392;2023-05-21T00:00:20;101200.29;;;13.60;79.25
61478;BME280;47345;52.334;10.392;2023-05-21T00:02:51;101200.05;;;13.57;79.41
61478;BME280;47345;52.334;10.392;2023-05-21T00:05:22;101197.77;;;13.55;79.46
61478;BME280;47345;52.334;10.392;2023-05-21T00:07:53;101193.34;;;13.53;79.46
61478;BME280;47345;52.334;10.392;2023-05-21T00:10:24;101192.80;;;13.50;79.66
61478;BME280;47345;52.334;10.392;2023-05-21T00:12:55;101191.71;;;13.46;79.76
61478;BME280;47345;52.334;10.392;2023-05-21T00:15:26;101187.99;;;13.42;80.11
61478;BME280;47345;52.334;10.392;2023-05-21T00:17:57;101184.41;;;13.39;80.30
61478;BME280;47345;52.334;10.392;2023-05-21T00:20:28;101180.08;;;13.35;80.45
61478;BME280;47345;52.334;10.392;2023-05-21T00:23:01;101178.61;;;13.29;80.48
61478;BME280;47345;52.334;10.392;2023-05-21T00:25:32;101179.55;;;13.28;80.63
61478;BME280;47345;52.334;10.392;2023-05-21T00:28:03;101171.66;;;13.23;80.76
61478;BME280;47345;52.334;10.392;2023-05-21T00:30:34;101173.92;;;13.21;80.92
61478;BME280;47345;52.334;10.392;2023-05-21T00:33:05;101169.01;;;13.18;80.97
61478;BME280;47345;52.334;10.392;2023-05-21T00:35:39;101170.91;;;13.16;81.19
61478;BME280;47345;52.334;10.392;2023-05-21T00:38:09;101161.84;;;13.11;81.43
61478;BME280;47345;52.334;10.392;2023-05-21T00:40:40;101160.79;;;13.09;81.46
61478;BME280;47345;52.334;10.392;2023-05-21T00:43:11;101158.73;;;13.07;81.49
61478;BME280;47345;52.334;10.392;2023-05-21T00:45:42;101157.29;;;13.04;81.69
61478;BME280;47345;52.334;10.392;2023-05-21T00:48:15;101158.73;;;13.03;81.84
61478;BME280;47345;52.334;10.392;2023-05-21T00:50:46;101157.08;;;12.99;82.01
61478;BME280;47345;52.334;10.392;2023-05-21T00:53:18;101155.94;;;12.97;82.08
61478;BME280;47345;52.334;10.392;2023-05-21T00:55:49;101155.27;;;12.95;82.20
61478;BME280;47345;52.334;10.392;2023-05-21T00:58:21;101154.72;;;12.94;82.38
61478;BME280;47345;52.334;10.392;2023-05-21T01:00:53;101155.02;;;12.92;82.48
61478;BME280;47345;52.334;10.392;2023-05-21T01:03:25;101151.77;;;12.92;82.61
61478;BME280;47345;52.334;10.392;2023-05-21T01:05:56;101150.38;;;12.90;82.56
61478;BME280;47345;52.334;10.392;2023-05-21T01:08:28;101145.94;;;12.89;82.59
61478;BME280;47345;52.334;10.392;2023-05-21T01:11:00;101143.08;;;12.86;82.70
61478;BME280;47345;52.334;10.392;2023-05-21T01:13:31;101140.41;;;12.84;82.68
61478;BME280;47345;52.334;10.392;2023-05-21T01:16:03;101141.84;;;12.81;82.84
61478;BME280;47345;52.334;10.392;2023-05-21T01:18:35;101142.35;;;12.79;83.00
61478;BME280;47345;52.334;10.392;2023-05-21T01:21:06;101135.55;;;12.76;83.08
61478;BME280;47345;52.334;10.392;2023-05-21T01:23:38;101134.21;;;12.74;83.22
61478;BME280;47345;52.334;10.392;2023-05-21T01:26:08;101135.27;;;12.72;83.23
61478;BME280;47345;52.334;10.392;2023-05-21T01:28:41;101134.68;;;12.69;83.21
61478;BME280;47345;52.334;10.392;2023-05-21T01:31:18;101129.20;;;12.67;83.44
61478;BME280;47345;52.334;10.392;2023-05-21T01:33:53;101129.70;;;12.64;83.63
61478;BME280;47345;52.334;10.392;2023-05-21T01:36:30;101127.34;;;12.62;83.58
61478;BME280;47345;52.334;10.392;2023-05-21T01:39:08;101124.17;;;12.59;83.58
61478;BME280;47345;52.334;10.392;2023-05-21T01:41:44;101118.85;;;12.57;83.92
61478;BME280;47345;52.334;10.392;2023-05-21T01:44:17;101120.45;;;12.54;83.99
61478;BME280;47345;52.334;10.392;2023-05-21T01:46:48;101120.75;;;12.51;83.95
61478;BME280;47345;52.334;10.392;2023-05-21T01:49:20;101119.45;;;12.48;84.09
61478;BME280;47345;52.334;10.392;2023-05-21T01:51:51;101122.19;;;12.47;84.17
61478;BME280;47345;52.334;10.392;2023-05-21T01:54:26;101125.14;;;12.44;84.19
61478;BME280;47345;52.334;10.392;2023-05-21T01:56:57;101128.22;;;12.42;84.31
61478;BME280;47345;52.334;10.392;2023-05-21T01:59:28;101122.40;;;12.39;84.24
61478;BME280;47345;52.334;10.392;2023-05-21T02:01:59;101118.46;;;12.35;84.42
61478;BME280;47345;52.334;10.392;2023-05-21T02:04:30;101120.36;;;12.32;84.55
61478;BME280;47345;52.334;10.392;2023-05-21T02:07:01;101125.30;;;12.30;84.67
61478;BME280;47345;52.334;10.392;2023-05-21T02:09:32;101125.38;;;12.26;84.77
61478;BME280;47345;52.334;10.392;2023-05-21T02:12:05;101125.37;;;12.23;84.91
61478;BME280;47345;52.334;10.392;2023-05-21T02:14:36;101118.58;;;12.18;85.14
61478;BME280;47345;52.334;10.392;2023-05-21T02:17:07;101120.09;;;12.16;85.20
61478;BME280;47345;52.334;10.392;2023-05-21T02:19:38;101120.90;;;12.14;85.25
61478;BME280;47345;52.334;10.392;2023-05-21T02:22:11;101119.77;;;12.11;85.38
61478;BME280;47345;52.334;10.392;2023-05-21T02:24:42;101122.75;;;12.09;85.15
61478;BME280;47345;52.334;10.392;2023-05-21T02:27:13;101118.35;;;12.06;85.19
61478;BME280;47345;52.334;10.392;2023-05-21T02:29:46;101116.95;;;12.03;85.35
61478;BME280;47345;52.334;10.392;2023-05-21T02:32:17;101117.57;;;12.00;85.49
61478;BME280;47345;52.334;10.392;2023-05-21T02:34:48;101114.84;;;11.98;85.48
61478;BME280;47345;52.334;10.392;2023-05-21T02:37:20;101118.23;;;11.96;85.57
61478;BME280;47345;52.334;10.392;2023-05-21T02:39:51;101120.61;;;11.93;85.66
61478;BME280;47345;52.334;10.392;2023-05-21T02:42:22;101123.94;;;11.92;85.72
61478;BME280;47345;52.334;10.392;2023-05-21T02:44:53;101118.35;;;11.89;85.77
61478;BME280;47345;52.334;10.392;2023-05-21T02:47:23;101114.98;;;11.88;85.81
61478;BME280;47345;52.334;10.392;2023-05-21T02:49:57;101117.17;;;11.86;85.83
61478;BME280;47345;52.334;10.392;2023-05-21T02:52:28;101117.88;;;11.84;86.03
61478;BME280;47345;52.334;10.392;2023-05-21T02:54:58;101119.42;;;11.80;85.97
61478;BME280;47345;52.334;10.392;2023-05-21T02:57:29;101116.67;;;11.79;86.13
61478;BME280;47345;52.334;10.392;2023-05-21T03:00:01;101114.91;;;11.77;86.18
61478;BME280;47345;52.334;10.392;2023-05-21T03:02:34;101113.71;;;11.75;86.27
61478;BME280;47345;52.334;10.392;2023-05-21T03:05:06;101111.90;;;11.72;86.36
61478;BME280;47345;52.334;10.392;2023-05-21T03:07:37;101110.19;;;11.68;86.53
61478;BME280;47345;52.334;10.392;2023-05-21T03:10:11;101107.80;;;11.65;86.69
61478;BME280;47345;52.334;10.392;2023-05-21T03:12:41;101105.60;;;11.62;86.75
61478;BME280;47345;52.334;10.392;2023-05-21T03:15:12;101107.36;;;11.60;86.94
61478;BME280;47345;52.334;10.392;2023-05-21T03:17:43;101103.39;;;11.58;87.07
61478;BME280;47345;52.334;10.392;2023-05-21T03:20:14;101104.82;;;11.57;86.86
61478;BME280;47345;52.334;10.392;2023-05-21T03:22:47;101099.84;;;11.55;86.97
61478;BME280;47345;52.334;10.392;2023-05-21T03:25:18;101100.66;;;11.52;87.02
61478;BME280;47345;52.334;10.392;2023-05-21T03:27:50;101097.06;;;11.49;86.99
61478;BME280;47345;52.334;10.392;2023-05-21T03:30:21;101095.96;;;11.47;87.02
61478;BME280;47345;52.334;10.392;2023-05-21T03:32:52;101093.86;;;11.46;87.10
61478;BME280;47345;52.334;10.392;2023-05-21T03:35:24;101093.68;;;11.44;87.10
61478;BME280;47345;52.334;10.392;2023-05-21T03:37:55;101096.84;;;11.44;87.18
61478;BME280;47345;52.334;10.392;2023-05-21T03:40:26;101094.81;;;11.44;87.12
61478;BME280;47345;52.334;10.392;2023-05-21T03:42:57;101091.44;;;11.43;87.21
61478;BME280;47345;52.334;10.392;2023-05-21T03:45:28;101089.59;;;11.43;87.25
61478;BME280;47345;52.334;10.392;2023-05-21T03:47:59;101090.23;;;11.44;87.10
61478;BME280;47345;52.334;10.392;2023-05-21T03:50:30;101090.02;;;11.46;87.22
61478;BME280;47345;52.334;10.392;2023-05-21T03:53:00;101088.91;;;11.45;87.19
61478;BME280;47345;52.334;10.392;2023-05-21T03:55:31;101090.45;;;11.48;87.16
61478;BME280;47345;52.334;10.392;2023-05-21T03:58:02;101087.76;;;11.49;87.23
61478;BME280;47345;52.334;10.392;2023-05-21T04:00:33;101089.23;;;11.50;87.16
61478;BME280;47345;52.334;10.392;2023-05-21T04:03:07;101094.17;;;11.51;87.19
61478;BME280;47345;52.334;10.392;2023-05-21T04:05:40;101090.22;;;11.52;87.16
61478;BME280;47345;52.334;10.392;2023-05-21T04:08:11;101088.48;;;11.53;87.13
61478;BME280;47345;52.334;10.392;2023-05-21T04:10:41;101089.59;;;11.55;87.11
61478;BME280;47345;52.334;10.392;2023-05-21T04:13:12;101087.54;;;11.56;87.13
61478;BME280;47345;52.334;10.392;2023-05-21T04:15:43;101088.69;;;11.59;87.16
61478;BME280;47345;52.334;10.392;2023-05-21T04:18:14;101088.61;;;11.60;87.18
61478;BME280;47345;52.334;10.392;2023-05-21T04:20:46;101093.67;;;11.64;87.10
61478;BME280;47345;52.334;10.392;2023-05-21T04:23:18;101095.66;;;11.65;87.17
61478;BME280;47345;52.334;10.392;2023-05-21T04:25:52;101087.39;;;11.68;87.22
61478;BME280;47345;52.334;10.392;2023-05-21T04:28:23;101087.66;;;11.72;87.16
61478;BME280;47345;52.334;10.392;2023-05-21T04:30:57;101085.34;;;11.75;87.14
61478;BME280;47345;52.334;10.392;2023-05-21T04:33:28;101087.51;;;11.80;87.16
61478;BME280;47345;52.334;10.392;2023-05-21T04:35:59;101091.70;;;11.84;87.04
61478;BME280;47345;52.334;10.392;2023-05-21T04:38:30;101091.74;;;11.86;86.96
61478;BME280;47345;52.334;10.392;2023-05-21T04:41:01;101096.27;;;11.91;86.99
61478;BME280;47345;52.334;10.392;2023-05-21T04:43:33;101096.52;;;11.94;86.92
61478;BME280;47345;52.334;10.392;2023-05-21T04:46:04;101099.20;;;11.99;86.93
61478;BME280;47345;52.334;10.392;2023-05-21T04:48:34;101099.92;;;12.05;86.76
61478;BME280;47345;52.334;10.392;2023-05-21T04:51:06;101100.81;;;12.11;86.66
61478;BME280;47345;52.334;10.392;2023-05-21T04:53:37;101107.94;;;12.16;86.74
61478;BME280;47345;52.334;10.392;2023-05-21T04:56:09;101104.95;;;12.20;86.62
61478;BME280;47345;52.334;10.392;2023-05-21T04:58:39;101105.00;;;12.25;86.61
61478;BME280;47345;52.334;10.392;2023-05-21T05:01:11;101108.96;;;12.31;86.42
61478;BME280;47345;52.334;10.392;2023-05-21T05:03:41;101108.13;;;12.39;86.53
61478;BME280;47345;52.334;10.392;2023-05-21T05:06:12;101105.59;;;12.48;86.38
61478;BME280;47345;52.334;10.392;2023-05-21T05:08:43;101100.20;;;12.57;86.20
61478;BME280;47345;52.334;10.392;2023-05-21T05:11:14;101100.61;;;12.64;86.04
61478;BME280;47345;52.334;10.392;2023-05-21T05:13:45;101097.77;;;12.73;86.05
61478;BME280;47345;52.334;10.392;2023-05-21T05:16:16;101091.92;;;12.81;85.84
61478;BME280;47345;52.334;10.392;2023-05-21T05:18:53;101086.42;;;12.86;85.60
61478;BME280;47345;52.334;10.392;2023-05-21T05:21:25;101090.75;;;12.96;85.57
61478;BME280;47345;52.334;10.392;2023-05-21T05:23:56;101092.73;;;13.04;85.44
61478;BME280;47345;52.334;10.392;2023-05-21T05:26:27;101092.14;;;13.14;85.31
61478;BME280;47345;52.334;10.392;2023-05-21T05:28:58;101088.11;;;13.22;84.88
61478;BME280;47345;52.334;10.392;2023-05-21T05:31:28;101088.77;;;13.26;84.55
61478;BME280;47345;52.334;10.392;2023-05-21T05:34:00;101085.23;;;13.30;84.51
61478;BME280;47345;52.334;10.392;2023-05-21T05:36:30;101086.61;;;13.35;84.53
61478;BME280;47345;52.334;10.392;2023-05-21T05:39:02;101088.41;;;13.40;84.41
61478;BME280;47345;52.334;10.392;2023-05-21T05:41:33;101089.05;;;13.44;84.23
61478;BME280;47345;52.334;10.392;2023-05-21T05:44:04;101087.83;;;13.49;84.26
61478;BME280;47345;52.334;10.392;2023-05-21T05:46:39;101086.86;;;13.56;84.23
61478;BME280;47345;52.334;10.392;2023-05-21T05:49:10;101084.13;;;13.62;84.31
61478;BME280;47345;52.334;10.392;2023-05-21T05:51:42;101082.73;;;13.69;84.29
61478;BME280;47345;52.334;10.392;2023-05-21T05:54:13;101076.89;;;13.77;84.22
61478;BME280;47345;52.334;10.392;2023-05-21T05:56:44;101076.54;;;13.86;83.97
61478;BME280;47345;52.334;10.392;2023-05-21T05:59:15;101075.59;;;13.96;83.94
61478;BME280;47345;52.334;10.392;2023-05-21T06:01:46;101073.33;;;14.05;83.64
61478;BME280;47345;52.334;10.392;2023-05-21T06:04:17;101075.73;;;14.12;83.71
61478;BME280;47345;52.334;10.392;2023-05-21T06:06:48;101077.23;;;14.21;83.61
61478;BME280;47345;52.334;10.392;2023-05-21T06:09:21;101078.15;;;14.28;83.34
61478;BME280;47345;52.334;10.392;2023-05-21T06:11:51;101080.86;;;14.38;83.37
61478;BME280;47345;52.334;10.392;2023-05-21T06:14:22;101079.73;;;14.46;83.24
61478;BME280;47345;52.334;10.392;2023-05-21T06:16:54;101076.86;;;14.55;82.94
61478;BME280;47345;52.334;10.392;2023-05-21T06:19:25;101079.59;;;14.63;82.62
61478;BME280;47345;52.334;10.392;2023-05-21T06:21:56;101076.80;;;14.68;82.30
61478;BME280;47345;52.334;10.392;2023-05-21T06:24:27;101075.17;;;14.72;82.27
61478;BME280;47345;52.334;10.392;2023-05-21T06:26:58;101075.55;;;14.77;82.28
61478;BME280;47345;52.334;10.392;2023-05-21T06:29:29;101076.59;;;14.82;82.21
61478;BME280;47345;52.334;10.392;2023-05-21T06:32:00;101076.84;;;14.87;82.13
61478;BME280;47345;52.334;10.392;2023-05-21T06:34:31;101075.36;;;14.93;82.24
61478;BME280;47345;52.334;10.392;2023-05-21T06:37:02;101078.64;;;14.99;81.99
61478;BME280;47345;52.334;10.392;2023-05-21T06:39:32;101081.15;;;15.03;81.84
61478;BME280;47345;52.334;10.392;2023-05-21T06:42:05;101080.86;;;15.08;81.70
61478;BME280;47345;52.334;10.392;2023-05-21T06:44:36;101085.30;;;15.12;81.61
61478;BME280;47345;52.334;10.392;2023-05-21T06:47:07;101082.95;;;15.17;81.67
61478;BME280;47345;52.334;10.392;2023-05-21T06:49:38;101083.81;;;15.24;81.65
61478;BME280;47345;52.334;10.392;2023-05-21T06:52:09;101079.16;;;15.29;81.74
61478;BME280;47345;52.334;10.392;2023-05-21T06:54:39;101075.31;;;15.36;81.72
61478;BME280;47345;52.334;10.392;2023-05-21T06:57:12;101078.49;;;15.41;81.37
61478;BME280;47345;52.334;10.392;2023-05-21T06:59:43;101075.42;;;15.46;81.28
61478;BME280;47345;52.334;10.392;2023-05-21T07:02:14;101077.44;;;15.51;81.30
61478;BME280;47345;52.334;10.392;2023-05-21T07:04:46;101075.77;;;15.55;81.00
61478;BME280;47345;52.334;10.392;2023-05-21T07:07:16;101070.89;;;15.59;81.17
61478;BME280;47345;52.334;10.392;2023-05-21T07:09:47;101077.92;;;15.66;81.37
61478;BME280;47345;52.334;10.392;2023-05-21T07:12:18;101076.10;;;15.72;80.88
61478;BME280;47345;52.334;10.392;2023-05-21T07:14:49;101075.20;;;15.79;81.06
61478;BME280;47345;52.334;10.392;2023-05-21T07:17:20;101078.02;;;15.87;80.93
61478;BME280;47345;52.334;10.392;2023-05-21T07:19:51;101076.44;;;15.94;80.68
61478;BME280;47345;52.334;10.392;2023-05-21T07:22:22;101074.09;;;16.01;80.46
61478;BME280;47345;52.334;10.392;2023-05-21T07:24:56;101076.52;;;16.09;80.44
61478;BME280;47345;52.334;10.392;2023-05-21T07:27:27;101077.23;;;16.18;80.16
61478;BME280;47345;52.334;10.392;2023-05-21T07:29:58;101075.86;;;16.25;81.28
61478;BME280;47345;52.334;10.392;2023-05-21T07:32:28;101081.04;;;16.20;83.82
61478;BME280;47345;52.334;10.392;2023-05-21T07:35:00;101078.83;;;16.01;83.65
61478;BME280;47345;52.334;10.392;2023-05-21T07:37:31;101085.02;;;15.81;84.21
61478;BME280;47345;52.334;10.392;2023-05-21T07:40:02;101086.39;;;15.65;84.42
61478;BME280;47345;52.334;10.392;2023-05-21T07:42:34;101085.25;;;15.54;85.18
61478;BME280;47345;52.334;10.392;2023-05-21T07:45:08;101085.52;;;15.50;85.80
61478;BME280;47345;52.334;10.392;2023-05-21T07:47:39;101083.06;;;15.49;86.11
61478;BME280;47345;52.334;10.392;2023-05-21T07:50:11;101078.29;;;15.51;86.47
61478;BME280;47345;52.334;10.392;2023-05-21T07:52:42;101073.91;;;15.58;87.10
61478;BME280;47345;52.334;10.392;2023-05-21T07:55:13;101076.70;;;15.66;86.67
61478;BME280;47345;52.334;10.392;2023-05-21T07:57:44;101074.23;;;15.70;86.14
61478;BME280;47345;52.334;10.392;2023-05-21T08:00:16;101072.48;;;15.77;86.22
61478;BME280;47345;52.334;10.392;2023-05-21T08:02:47;101075.31;;;15.84;86.04
61478;BME280;47345;52.334;10.392;2023-05-21T08:05:18;101067.99;;;15.92;86.30
61478;BME280;47345;52.334;10.392;2023-05-21T08:07:50;101068.34;;;16.05;86.45
61478;BME280;47345;52.334;10.392;2023-05-21T08:10:21;101067.22;;;16.18;86.36
61478;BME280;47345;52.334;10.392;2023-05-21T08:12:52;101066.48;;;16.27;85.54
61478;BME280;47345;52.334;10.392;2023-05-21T08:15:22;101066.77;;;16.37;85.79
61478;BME280;47345;52.334;10.392;2023-05-21T08:17:53;101066.26;;;16.50;86.07
61478;BME280;47345;52.334;10.392;2023-05-21T08:20:24;101070.00;;;16.64;86.24
61478;BME280;47345;52.334;10.392;2023-05-21T08:22:56;101065.90;;;16.75;85.44
61478;BME280;47345;52.334;10.392;2023-05-21T08:25:26;101068.57;;;16.88;85.66
61478;BME280;47345;52.334;10.392;2023-05-21T08:27:57;101069.05;;;16.98;84.30
61478;BME280;47345;52.334;10.392;2023-05-21T08:30:28;101070.79;;;17.05;83.77
61478;BME280;47345;52.334;10.392;2023-05-21T08:32:58;101068.14;;;17.13;83.21
61478;BME280;47345;52.334;10.392;2023-05-21T08:35:29;101068.67;;;17.20;83.45
61478;BME280;47345;52.334;10.392;2023-05-21T08:38:01;101070.70;;;17.30;83.36
61478;BME280;47345;52.334;10.392;2023-05-21T08:40:32;101074.71;;;17.37;82.03
61478;BME280;47345;52.334;10.392;2023-05-21T08:43:04;101074.89;;;17.43;81.46
61478;BME280;47345;52.334;10.392;2023-05-21T08:45:35;101073.39;;;17.51;81.95
61478;BME280;47345;52.334;10.392;2023-05-21T08:48:10;101070.32;;;17.61;81.52
61478;BME280;47345;52.334;10.392;2023-05-21T08:50:41;101064.48;;;17.71;81.61
61478;BME280;47345;52.334;10.392;2023-05-21T08:53:12;101066.94;;;17.83;81.84
61478;BME280;47345;52.334;10.392;2023-05-21T08:55:57;101064.09;;;17.94;81.30
61478;BME280;47345;52.334;10.392;2023-05-21T08:58:28;101054.27;;;18.02;80.86
61478;BME280;47345;52.334;10.392;2023-05-21T09:01:02;101057.98;;;18.11;80.34
61478;BME280;47345;52.334;10.392;2023-05-21T09:03:35;101063.43;;;18.18;79.96
61478;BME280;47345;52.334;10.392;2023-05-21T09:06:12;101064.02;;;18.27;79.08
61478;BME280;47345;52.334;10.392;2023-05-21T09:08:48;101060.95;;;18.36;78.66
61478;BME280;47345;52.334;10.392;2023-05-21T09:11:22;101056.77;;;18.45;79.00
61478;BME280;47345;52.334;10.392;2023-05-21T09:13:54;101055.48;;;18.55;78.52
61478;BME280;47345;52.334;10.392;2023-05-21T09:16:25;101053.34;;;18.64;78.18
61478;BME280;47345;52.334;10.392;2023-05-21T09:18:58;101056.02;;;18.72;78.32
61478;BME280;47345;52.334;10.392;2023-05-21T09:21:32;101061.14;;;18.82;77.69
61478;BME280;47345;52.334;10.392;2023-05-21T09:24:02;101056.43;;;18.90;77.09
61478;BME280;47345;52.334;10.392;2023-05-21T09:26:33;101053.61;;;19.00;77.52
61478;BME280;47345;52.334;10.392;2023-05-21T09:29:04;101058.09;;;19.12;76.86
61478;BME280;47345;52.334;10.392;2023-05-21T09:31:35;101060.55;;;19.23;76.16
61478;BME280;47345;52.334;10.392;2023-05-21T09:34:06;101060.83;;;19.32;74.60
61478;BME280;47345;52.334;10.392;2023-05-21T09:36:39;101064.00;;;19.42;74.14
61478;BME280;47345;52.334;10.392;2023-05-21T09:39:10;101059.03;;;19.53;73.97
61478;BME280;47345;52.334;10.392;2023-05-21T09:41:45;101060.10;;;19.66;73.58
61478;BME280;47345;52.334;10.392;2023-05-21T09:44:18;101059.47;;;19.80;74.00
61478;BME280;47345;52.334;10.392;2023-05-21T09:46:49;101060.38;;;19.96;74.04
61478;BME280;47345;52.334;10.392;2023-05-21T09:49:24;101059.02;;;20.10;73.30
61478;BME280;47345;52.334;10.392;2023-05-21T09:51:57;101056.40;;;20.23;72.95
61478;BME280;47345;52.334;10.392;2023-05-21T09:54:31;101053.71;;;20.36;73.21
61478;BME280;47345;52.334;10.392;2023-05-21T09:57:02;101049.27;;;20.48;72.29
61478;BME280;47345;52.334;10.392;2023-05-21T09:59:40;101047.36;;;20.60;72.15
61478;BME280;47345;52.334;10.392;2023-05-21T10:02:16;101048.14;;;20.72;70.78
61478;BME280;47345;52.334;10.392;2023-05-21T10:04:47;101042.78;;;20.83;70.43
61478;BME280;47345;52.334;10.392;2023-05-21T10:07:19;101042.95;;;20.92;69.81
61478;BME280;47345;52.334;10.392;2023-05-21T10:09:56;101041.34;;;20.93;68.86
61478;BME280;47345;52.334;10.392;2023-05-21T10:12:29;101035.09;;;20.97;69.94
61478;BME280;47345;52.334;10.392;2023-05-21T10:15:02;101031.82;;;21.03;70.05
61478;BME280;47345;52.334;10.392;2023-05-21T10:17:33;101027.80;;;21.11;69.92
61478;BME280;47345;52.334;10.392;2023-05-21T10:20:11;101025.16;;;21.19;69.08
61478;BME280;47345;52.334;10.392;2023-05-21T10:22:42;101027.20;;;21.29;68.89
61478;BME280;47345;52.334;10.392;2023-05-21T10:25:14;101028.63;;;21.42;68.67
61478;BME280;47345;52.334;10.392;2023-05-21T10:27:45;101024.73;;;21.57;68.68
61478;BME280;47345;52.334;10.392;2023-05-21T10:30:18;101030.35;;;21.71;68.02
61478;BME280;47345;52.334;10.392;2023-05-21T10:32:51;101031.41;;;21.81;66.87
61478;BME280;47345;52.334;10.392;2023-05-21T10:35:25;101021.56;;;21.87;66.95
61478;BME280;47345;52.334;10.392;2023-05-21T10:37:57;101022.48;;;21.98;67.10
61478;BME280;47345;52.334;10.392;2023-05-21T10:40:28;101021.86;;;22.06;66.66
61478;BME280;47345;52.334;10.392;2023-05-21T10:43:16;101015.23;;;22.15;66.65
61478;BME280;47345;52.334;10.392;2023-05-21T10:46:04;101014.77;;;22.28;66.42
61478;BME280;47345;52.334;10.392;2023-05-21T10:48:51;101013.98;;;22.41;65.01
61478;BME280;47345;52.334;10.392;2023-05-21T10:51:37;101014.50;;;22.52;64.71
61478;BME280;47345;52.334;10.392;2023-05-21T10:54:40;101011.02;;;22.62;64.72
61478;BME280;47345;52.334;10.392;2023-05-21T10:57:32;101008.81;;;22.76;64.43
61478;BME280;47345;52.334;10.392;2023-05-21T11:00:03;101005.70;;;22.84;64.22
61478;BME280;47345;52.334;10.392;2023-05-21T11:02:35;101003.69;;;22.91;63.66
61478;BME280;47345;52.334;10.392;2023-05-21T11:05:07;101003.23;;;22.92;63.08
61478;BME280;47345;52.334;10.392;2023-05-21T11:08:00;101003.22;;;22.95;63.03
61478;BME280;47345;52.334;10.392;2023-05-21T11:10:37;100998.08;;;22.97;62.78
61478;BME280;47345;52.334;10.392;2023-05-21T11:13:11;101004.64;;;23.01;62.06
61478;BME280;47345;52.334;10.392;2023-05-21T11:16:04;100994.88;;;23.03;62.07
61478;BME280;47345;52.334;10.392;2023-05-21T11:19:02;100992.30;;;23.06;62.21
61478;BME280;47345;52.334;10.392;2023-05-21T11:21:34;100987.64;;;23.09;62.01
61478;BME280;47345;52.334;10.392;2023-05-21T11:24:09;100986.40;;;23.13;62.83
61478;BME280;47345;52.334;10.392;2023-05-21T11:27:04;100988.16;;;23.18;62.26
61478;BME280;47345;52.334;10.392;2023-05-21T11:29:43;100983.92;;;23.18;61.96
61478;BME280;47345;52.334;10.392;2023-05-21T11:32:15;100981.25;;;23.17;61.94
61478;BME280;47345;52.334;10.392;2023-05-21T11:34:49;100982.53;;;23.19;60.98
61478;BME280;47345;52.334;10.392;2023-05-21T11:37:31;100979.34;;;23.20;61.51
61478;BME280;47345;52.334;10.392;2023-05-21T11:40:21;100978.44;;;23.21;61.36
61478;BME280;47345;52.334;10.392;2023-05-21T11:42:55;100979.35;;;23.24;61.31
61478;BME280;47345;52.334;10.392;2023-05-21T11:45:29;100978.13;;;23.24;61.40
61478;BME280;47345;52.334;10.392;2023-05-21T11:48:00;100971.58;;;23.25;61.61
61478;BME280;47345;52.334;10.392;2023-05-21T11:50:32;100970.14;;;23.26;61.21
61478;BME280;47345;52.334;10.392;2023-05-21T11:53:04;100970.27;;;23.31;60.62
61478;BME280;47345;52.334;10.392;2023-05-21T11:55:38;100974.30;;;23.36;60.52
61478;BME280;47345;52.334;10.392;2023-05-21T11:58:13;100972.36;;;23.43;59.74
61478;BME280;47345;52.334;10.392;2023-05-21T12:00:45;100970.05;;;23.47;59.81
61478;BME280;47345;52.334;10.392;2023-05-21T12:03:22;100965.02;;;23.50;60.63
61478;BME280;47345;52.334;10.392;2023-05-21T12:06:03;100963.98;;;23.54;60.99
61478;BME280;47345;52.334;10.392;2023-05-21T12:08:33;100957.36;;;23.59;59.88
61478;BME280;47345;52.334;10.392;2023-05-21T12:11:06;100951.61;;;23.65;60.03
61478;BME280;47345;52.334;10.392;2023-05-21T12:13:37;100952.00;;;23.73;61.19
61478;BME280;47345;52.334;10.392;2023-05-21T12:16:08;100951.42;;;23.82;59.86
61478;BME280;47345;52.334;10.392;2023-05-21T12:18:39;100951.21;;;23.93;59.86
61478;BME280;47345;52.334;10.392;2023-05-21T12:21:10;100949.20;;;24.02;59.74
61478;BME280;47345;52.334;10.392;2023-05-21T12:23:42;100942.34;;;24.08;59.03
61478;BME280;47345;52.334;10.392;2023-05-21T12:26:13;100940.73;;;24.17;59.05
61478;BME280;47345;52.334;10.392;2023-05-21T12:28:44;100946.41;;;24.31;57.97
61478;BME280;47345;52.334;10.392;2023-05-21T12:31:16;100944.48;;;24.44;56.72
61478;BME280;47345;52.334;10.392;2023-05-21T12:33:49;100941.68;;;24.55;56.65
61478;BME280;47345;52.334;10.392;2023-05-21T12:36:24;100938.84;;;24.64;56.81
61478;BME280;47345;52.334;10.392;2023-05-21T12:38:56;100938.42;;;24.71;56.38
61478;BME280;47345;52.334;10.392;2023-05-21T12:41:27;100937.55;;;24.75;55.36
61478;BME280;47345;52.334;10.392;2023-05-21T12:43:59;100933.29;;;24.81;54.73
61478;BME280;47345;52.334;10.392;2023-05-21T12:46:30;100928.23;;;24.83;55.39
61478;BME280;47345;52.334;10.392;2023-05-21T12:49:01;100926.90;;;24.82;54.18
61478;BME280;47345;52.334;10.392;2023-05-21T12:51:39;100924.27;;;24.86;52.94
61478;BME280;47345;52.334;10.392;2023-05-21T12:54:13;100920.36;;;24.89;53.42
61478;BME280;47345;52.334;10.392;2023-05-21T12:56:47;100916.17;;;24.92;52.49
61478;BME280;47345;52.334;10.392;2023-05-21T12:59:18;100922.60;;;24.98;52.23
61478;BME280;47345;52.334;10.392;2023-05-21T13:01:49;100915.17;;;25.00;51.65
61478;BME280;47345;52.334;10.392;2023-05-21T13:04:21;100920.89;;;25.07;51.79
61478;BME280;47345;52.334;10.392;2023-05-21T13:06:53;100915.99;;;25.14;51.42